Bristol, TN

5:59 PM EDT on August 23, 2016 (GMT -0400)
Mount Area | | Change Station

Elev 1614 ft 36.57 °N, 82.25 °W | Updated 7 seconds ago

Scattered Clouds
Scattered Clouds
85.3 °F
Feels Like 89 °F
N
0.0
Wind Variable Wind from South
Gusts 0.0 mph

Today
High -- | Low -- °F
--% Chance of Precip.
Yesterday
High -- | Low -- °F
Precip. -- in
Pressure 30.28 in
Visibility 10.0 miles
Clouds Scattered Clouds 5500 ft
Scattered Clouds 6500 ft
Heat Index 89 °F
Dew Point 69 °F
Humidity 59%
Rainfall 0.00 in
Snow Depth Not available.
6:53 AM 8:08 PM
Waning Gibbous, 64% visible
METAR KVJI 232155Z AUTO 00000KT 10SM SCT055 SCT065 28/16 A3028 RMK AO2 T02800155
Pressure 30.28 in
Visibility 10.0 miles
Clouds Scattered Clouds 5500 ft
Scattered Clouds 6500 ft
Heat Index 89 °F
Dew Point 69 °F
Humidity 59%
Rainfall 0.00 in
Snow Depth Not available.
6:53 AM 8:08 PM
Waning Gibbous, 64% visible
METAR KVJI 232155Z AUTO 00000KT 10SM SCT055 SCT065 28/16 A3028 RMK AO2 T02800155

10-Day Weather Forecast

Almanac

Astronomy

Aug. 23, 2016 Rise Set
Actual Time
Civil Twilight
Nautical Twilight
Astronomical Twilight
Moon
Length of Visible Light
Length of Day
Tomorrow will be .
, % of the Moon is Illuminated

Today's Extremes

State Highs State Lows

Community

WunderPhotos

Upload Photos

1,934,470 photos uploaded!

WunderBlog® & News

Nearby

Air Quality

  Air Quality AQ Index Pollutant
Not available.

Snow Depth

Station Depth Elevation

Earthquake Activity

City Distance Mag. Time & Date
Minimum magnitude displayed is 2.5.

Coastal Water Temperatures

Place Temperature

Stations

Nearby Weather Stations

Station Location Temp. Windchill Dew Point Humidity Wind Precip. Elev Updated Type
                   

Watches & Warnings

There are currently no watches in effect.